Juigalpa, Nicaragua

2:39 AM CST on September 21, 2014 (GMT -0600)
Augusto Cesar Sandino | Change Station
CLOSE
Current Station
Airport
Location: Managua,
Elevation: 184 ft
Nearby Weather Stations

Elev 184 ft 12.14 °N, 86.17 °W | Updated 2 hours ago

Scattered Clouds
Scattered Clouds
75 °F
Feels Like 75 °F
N
5
Wind Variable Wind from South

Today
High -- | Low -- °F
--% Chance of Precip.
Yesterday
High -- | Low -- °F
Precip. -- in
5:30 AM 5:38 PM
Waning Crescent, 8% visible
Pressure 29.86 in
Visibility 6.2 miles
Clouds Few 2000 ft
Scattered Clouds 30000 ft
Dew Point 73 °F
Humidity 94%
Rainfall 0.00 in
Snow Depth Not available.
UV 0 out of 12
Pollen Not available.
Air Quality Not available.
Flu Activity Not available.
METAR MNMG 210600Z 19004KT 9999 FEW020CB SCT300 24/23 Q1011 A2988 CB/ SW/NW/ NE/SE 1SC021 2AC070 NOSIG

More Conditions Fewer Conditions

Pressure 29.86 in
Visibility 6.2 miles
Clouds Few 2000 ft
Scattered Clouds 30000 ft
Dew Point 73 °F
Humidity 94%
Rainfall 0.00 in
Snow Depth Not available.
UV 0 out of 12
Pollen Not available.
Air Quality Not available.
Flu Activity Not available.
METAR MNMG 210600Z 19004KT 9999 FEW020CB SCT300 24/23 Q1011 A2988 CB/ SW/NW/ NE/SE 1SC021 2AC070 NOSIG

More Conditions Fewer Conditions

10-Day Weather Forecast

Almanac

Astronomy

Sep. 21, 2014 Rise Set
Actual Time 5:30 AM CST 5:38 PM CST
Civil Twilight 5:09 AM CST 5:59 PM CST
Nautical Twilight 4:44 AM CST 6:23 PM CST
Astronomical Twilight 4:20 AM CST 6:48 PM CST
Moon 3:23 AM CST 3:58 PM CST
Length of Visible Light 12h 49m
Length of Day
12h 07m
Tomorrow will be 0m 40s shorter.
Waning Crescent, 8% of the Moon is Illuminated
Today
Waning Crescent
Sep 24
New
Oct 1
First Quarter
Oct 8
Full
Oct 15
Last Quarter

Yesterday's Extremes

Country Highs Country Lows

Community

WunderPhotos

Upload Photos

1,755,101 photos uploaded!

Nearby

Snow Depth

Not available.

Earthquake Activity

City Distance Mag. Time & Date
No recent earthquake activity has been reported nearby.
Minimum magnitude displayed is 2.5.

Coastal Water Temperatures

Place Temperature
No Stations Reporting

Nearby Weather Stations